Time;durP1;ratioP1;P1;durP2;ratioP2;P2;SDS_P1;SDS_P2;PMS_P1;PMS_P2;Temp;Humidity;BMP_temperature;BMP_pressure;BME280_temperature;BME280_humidity;BME280_pressure;Samples;Min_cycle;Max_cycle;Signal;HPM_P1;HPM_P2
2022/06/10 00:01:47;;;;;;;0.50;0.50;;;12.20;99.90;;;;;;5070505;28;20393;-67
2022/06/10 00:04:13;;;;;;;0.40;0.20;;;12.10;99.90;;;;;;5071460;28;20709;-67
2022/06/10 00:06:38;;;;;;;0.40;0.20;;;12.10;99.90;;;;;;5070491;28;20848;-67
2022/06/10 00:09:04;;;;;;;0.40;0.22;;;12.00;99.90;;;;;;5071097;28;20495;-67
2022/06/10 00:11:30;;;;;;;0.40;0.20;;;12.00;99.90;;;;;;5070162;28;20441;-68
2022/06/10 00:13:55;;;;;;;0.60;0.60;;;11.90;99.90;;;;;;5070749;28;20376;-67
2022/06/10 00:16:21;;;;;;;0.40;0.20;;;11.90;99.90;;;;;;5070805;28;20421;-67
2022/06/10 00:18:48;;;;;;;0.40;0.20;;;11.90;99.90;;;;;;5070137;28;20384;-67
2022/06/10 00:21:15;;;;;;;0.40;0.20;;;11.80;99.90;;;;;;5071130;28;20882;-67
2022/06/10 00:23:42;;;;;;;0.40;0.20;;;11.80;99.90;;;;;;5070161;28;20384;-67
2022/06/10 00:26:08;;;;;;;0.40;0.20;;;11.80;99.90;;;;;;5070697;28;20387;-67
2022/06/10 00:28:34;;;;;;;0.40;0.20;;;11.70;99.90;;;;;;5070091;28;20408;-67
2022/06/10 00:30:59;;;;;;;0.40;0.20;;;11.70;99.90;;;;;;5070850;28;20848;-68
2022/06/10 00:33:25;;;;;;;0.40;0.20;;;11.70;99.90;;;;;;5070814;28;20388;-67
2022/06/10 00:35:51;;;;;;;0.40;0.20;;;11.70;99.90;;;;;;5070131;28;20383;-68
2022/06/10 00:38:18;;;;;;;0.40;0.20;;;11.70;99.90;;;;;;5070812;28;20394;-67
2022/06/10 00:40:49;;;;;;;0.40;0.40;;;11.70;99.90;;;;;;5070292;28;20724;-68
2022/06/10 00:43:18;;;;;;;0.40;0.20;;;11.60;99.90;;;;;;5070634;28;20391;-67
2022/06/10 00:46:11;;;;;;;0.40;0.20;;;11.60;99.90;;;;;;5070122;28;20418;-67
2022/06/10 00:48:48;;;;;;;0.40;0.30;;;11.50;99.90;;;;;;5059128;28;20477;-67
2022/06/10 00:51:14;;;;;;;0.40;0.20;;;11.60;99.90;;;;;;5074176;28;20394;-67
2022/06/10 00:53:40;;;;;;;0.90;0.90;;;11.50;99.90;;;;;;5076869;28;20379;-67
2022/06/10 00:56:14;;;;;;;0.40;0.20;;;11.50;99.90;;;;;;5077306;28;20385;-67
2022/06/10 00:58:49;;;;;;;0.40;0.20;;;11.50;99.90;;;;;;5076210;28;20898;-68
2022/06/10 01:01:16;;;;;;;0.40;0.30;;;11.40;99.90;;;;;;5077375;28;20409;-67
2022/06/10 01:03:42;;;;;;;0.40;0.20;;;11.40;99.90;;;;;;5076657;28;20383;-67
2022/06/10 01:06:09;;;;;;;0.40;0.30;;;11.40;99.90;;;;;;5077482;28;20440;-67
2022/06/10 01:08:36;;;;;;;0.40;0.30;;;11.40;99.90;;;;;;5076258;28;20411;-67
2022/06/10 01:11:28;;;;;;;0.40;0.20;;;11.40;99.90;;;;;;5076972;28;20458;-67
2022/06/10 01:14:05;;;;;;;0.40;0.20;;;11.30;99.90;;;;;;5076363;28;20814;-67
2022/06/10 01:16:51;;;;;;;0.40;0.20;;;11.30;99.90;;;;;;5076907;28;20475;-67
2022/06/10 01:19:35;;;;;;;0.40;0.20;;;11.30;99.90;;;;;;5076801;28;20385;-67
2022/06/10 01:22:19;;;;;;;0.40;0.20;;;11.20;99.90;;;;;;5076821;28;20935;-67
2022/06/10 01:24:44;;;;;;;0.40;0.20;;;11.20;99.90;;;;;;5076243;28;20384;-67
2022/06/10 01:27:48;;;;;;;0.40;0.20;;;11.20;99.90;;;;;;5077049;28;20879;-68
2022/06/10 01:30:17;;;;;;;0.40;0.20;;;11.10;99.90;;;;;;5076497;28;20464;-68
2022/06/10 01:33:10;;;;;;;0.40;0.20;;;11.20;99.90;;;;;;5076014;28;20387;-67
2022/06/10 01:35:51;;;;;;;0.40;0.20;;;11.20;99.90;;;;;;5075975;28;20376;-68
2022/06/10 01:38:30;;;;;;;0.40;0.20;;;11.20;99.90;;;;;;5076925;28;20383;-67
2022/06/10 01:41:08;;;;;;;0.40;0.20;;;11.10;99.90;;;;;;5075967;28;20383;-67
2022/06/10 01:43:33;;;;;;;0.40;0.20;;;11.10;99.90;;;;;;5076036;28;20407;-67
2022/06/10 01:46:20;;;;;;;0.40;0.20;;;11.10;99.90;;;;;;5076610;28;20444;-67
2022/06/10 01:49:24;;;;;;;0.40;0.20;;;11.00;99.90;;;;;;5075941;28;20408;-67
2022/06/10 01:51:53;;;;;;;0.40;0.20;;;11.00;99.90;;;;;;5071617;28;20402;-67
2022/06/10 01:54:34;;;;;;;0.40;0.20;;;11.00;99.90;;;;;;5076688;28;20437;-67
2022/06/10 01:57:06;;;;;;;0.40;0.20;;;10.90;99.90;;;;;;5076178;28;20375;-68
2022/06/10 01:59:44;;;;;;;1.00;0.90;;;10.80;99.90;;;;;;5076659;28;20387;-67
2022/06/10 02:02:17;;;;;;;0.40;0.30;;;10.90;99.90;;;;;;5075076;28;20388;-67
2022/06/10 02:04:48;;;;;;;0.50;0.50;;;10.80;99.90;;;;;;5072691;28;20364;-67
2022/06/10 02:07:47;;;;;;;0.40;0.20;;;10.80;99.90;;;;;;5073605;28;20387;-67
2022/06/10 02:10:23;;;;;;;0.40;0.20;;;10.70;99.90;;;;;;5072957;28;20443;-67
2022/06/10 02:13:00;;;;;;;0.40;0.20;;;10.80;99.90;;;;;;5072434;28;20418;-68
2022/06/10 02:15:37;;;;;;;0.40;0.20;;;10.70;99.90;;;;;;5073311;28;20388;-67
2022/06/10 02:18:09;;;;;;;0.40;0.30;;;10.70;99.90;;;;;;5073328;28;20375;-67
2022/06/10 02:20:40;;;;;;;0.40;0.20;;;10.70;99.90;;;;;;5072817;28;20462;-67
2022/06/10 02:23:09;;;;;;;0.40;0.20;;;10.60;99.90;;;;;;5073261;28;20371;-67
2022/06/10 02:25:43;;;;;;;0.40;0.20;;;10.60;99.90;;;;;;5072906;28;20461;-67
2022/06/10 02:28:13;;;;;;;0.40;0.20;;;10.70;99.90;;;;;;5072897;28;20364;-67
2022/06/10 02:31:01;;;;;;;0.40;0.30;;;10.60;99.90;;;;;;5072664;28;20387;-68
2022/06/10 02:33:26;;;;;;;0.40;0.38;;;10.60;99.90;;;;;;5073214;28;20463;-68
2022/06/10 02:36:09;;;;;;;0.40;0.20;;;10.50;99.90;;;;;;5072158;28;20796;-68
2022/06/10 02:38:41;;;;;;;0.40;0.20;;;10.50;99.90;;;;;;5072656;28;20383;-67
2022/06/10 02:41:19;;;;;;;0.40;0.20;;;10.50;99.90;;;;;;5072896;28;20410;-67
2022/06/10 02:44:11;;;;;;;0.40;0.20;;;10.50;99.90;;;;;;5072011;28;20500;-68
2022/06/10 02:46:48;;;;;;;0.40;0.20;;;10.50;99.90;;;;;;5072521;28;20907;-68
2022/06/10 02:49:17;;;;;;;0.40;0.20;;;10.50;99.90;;;;;;5072541;28;20407;-68
2022/06/10 02:51:45;;;;;;;0.40;0.40;;;10.50;99.90;;;;;;5071885;28;20379;-67
2022/06/10 02:54:37;;;;;;;0.50;0.50;;;10.40;99.90;;;;;;5072812;28;20391;-67
2022/06/10 02:57:18;;;;;;;0.40;0.20;;;10.40;99.90;;;;;;5071570;28;20384;-67
2022/06/10 03:03:13;;;;;;;0.40;0.20;;;10.30;99.90;;;;;;5052522;28;20781;-67
2022/06/10 03:05:56;;;;;;;0.40;0.20;;;10.30;99.90;;;;;;5002739;28;20403;-69
2022/06/10 03:08:30;;;;;;;0.40;0.20;;;10.40;99.90;;;;;;5052117;28;20392;-68
2022/06/10 03:11:04;;;;;;;0.40;0.30;;;10.30;99.90;;;;;;5051203;28;20377;-68
2022/06/10 03:13:39;;;;;;;0.60;0.60;;;10.30;99.90;;;;;;5051529;28;20451;-67
2022/06/10 03:16:05;;;;;;;0.40;0.20;;;10.30;99.90;;;;;;5051370;28;20385;-67
2022/06/10 03:19:04;;;;;;;0.40;0.20;;;10.30;99.90;;;;;;5052176;28;20389;-68
2022/06/10 03:21:50;;;;;;;0.40;0.30;;;10.30;99.90;;;;;;5051961;28;20373;-67
2022/06/10 03:24:38;;;;;;;1.10;0.50;;;10.30;99.90;;;;;;5052300;28;20374;-68
2022/06/10 03:27:28;;;;;;;0.40;0.20;;;10.20;99.90;;;;;;5051775;28;20468;-68
2022/06/10 03:30:01;;;;;;;0.40;0.20;;;10.30;99.90;;;;;;5051111;28;20413;-68
2022/06/10 03:32:27;;;;;;;0.40;0.23;;;10.20;99.90;;;;;;5051863;28;20480;-68
2022/06/10 03:35:08;;;;;;;0.50;0.50;;;10.20;99.90;;;;;;5050813;28;20472;-68
2022/06/10 03:37:37;;;;;;;0.40;0.20;;;10.20;99.90;;;;;;5051906;28;20373;-68
2022/06/10 03:40:04;;;;;;;0.40;0.20;;;10.20;99.90;;;;;;5050839;28;20384;-68
2022/06/10 03:42:30;;;;;;;0.40;0.30;;;10.20;99.90;;;;;;5051968;28;20406;-68
2022/06/10 03:44:58;;;;;;;0.40;0.20;;;10.10;99.90;;;;;;5050918;28;20815;-68
2022/06/10 03:47:30;;;;;;;0.40;0.20;;;10.10;99.90;;;;;;5052093;28;20761;-68
2022/06/10 03:50:03;;;;;;;0.40;0.30;;;10.10;99.90;;;;;;5050682;28;20416;-68
2022/06/10 03:52:32;;;;;;;0.40;0.20;;;10.20;99.90;;;;;;5051597;28;20370;-68
2022/06/10 03:54:58;;;;;;;0.40;0.20;;;10.10;99.90;;;;;;5050426;28;20874;-68
2022/06/10 03:57:23;;;;;;;0.40;0.40;;;10.20;99.90;;;;;;5051892;28;20389;-68
2022/06/10 03:59:49;;;;;;;0.40;0.20;;;10.20;99.90;;;;;;5070500;28;20383;-68
2022/06/10 04:02:16;;;;;;;0.40;0.20;;;10.10;99.90;;;;;;5071383;28;20852;-68
2022/06/10 04:04:42;;;;;;;0.40;0.20;;;10.10;99.90;;;;;;5070980;28;20375;-68
2022/06/10 04:07:11;;;;;;;0.40;0.20;;;10.00;99.90;;;;;;5070775;28;20911;-68
2022/06/10 04:09:37;;;;;;;0.40;0.20;;;10.20;99.90;;;;;;5071217;28;20407;-68
2022/06/10 04:12:03;;;;;;;0.40;0.40;;;10.20;99.90;;;;;;5070184;28;21017;-68
2022/06/10 04:14:29;;;;;;;0.40;0.20;;;10.10;99.90;;;;;;5071354;28;20747;-68
2022/06/10 04:16:55;;;;;;;0.50;0.50;;;10.10;99.90;;;;;;5069944;28;20470;-68
2022/06/10 04:19:21;;;;;;;0.40;0.20;;;10.10;99.90;;;;;;5071092;28;20411;-68
2022/06/10 04:21:47;;;;;;;0.40;0.40;;;10.10;99.90;;;;;;5070099;28;20387;-68
2022/06/10 04:24:12;;;;;;;0.40;0.20;;;10.10;99.90;;;;;;5071023;28;20374;-68
2022/06/10 04:26:38;;;;;;;0.40;0.20;;;10.20;99.90;;;;;;5070611;28;20383;-68
2022/06/10 04:29:04;;;;;;;0.40;0.20;;;10.20;99.90;;;;;;5070156;28;21124;-68
2022/06/10 04:31:30;;;;;;;0.40;0.20;;;10.10;99.90;;;;;;5070879;28;20487;-68
2022/06/10 04:33:56;;;;;;;0.40;0.20;;;10.30;99.90;;;;;;5070207;28;20418;-68
2022/06/10 04:36:21;;;;;;;0.40;0.20;;;10.30;99.90;;;;;;5070780;28;20376;-68
2022/06/10 04:38:47;;;;;;;0.80;0.80;;;10.30;99.90;;;;;;5059424;28;20428;-68
2022/06/10 04:41:14;;;;;;;0.40;0.20;;;10.30;99.90;;;;;;5063414;28;20392;-68
2022/06/10 04:43:40;;;;;;;0.40;0.20;;;10.30;99.90;;;;;;5050444;28;20413;-68
2022/06/10 04:46:08;;;;;;;0.70;0.70;;;10.50;99.90;;;;;;5049926;28;20381;-68
2022/06/10 04:48:34;;;;;;;0.40;0.20;;;10.50;99.90;;;;;;5050882;28;20405;-68
2022/06/10 04:51:00;;;;;;;0.45;0.35;;;10.50;99.90;;;;;;5049818;28;20385;-68
2022/06/10 04:53:26;;;;;;;0.40;0.20;;;10.60;99.90;;;;;;5050418;28;20435;-68
2022/06/10 04:55:52;;;;;;;0.60;0.60;;;10.60;99.90;;;;;;5049561;28;20381;-68
2022/06/10 04:58:18;;;;;;;0.40;0.30;;;10.70;99.90;;;;;;5050599;28;20386;-68
2022/06/10 05:00:50;;;;;;;0.40;0.20;;;10.70;99.90;;;;;;5050264;28;20469;-68
2022/06/10 05:03:16;;;;;;;0.40;0.20;;;10.70;99.90;;;;;;5050556;28;20420;-68
2022/06/10 05:05:42;;;;;;;0.40;0.30;;;10.80;99.90;;;;;;5050574;28;20818;-67
2022/06/10 05:08:12;;;;;;;0.40;0.20;;;10.90;99.90;;;;;;5049758;28;21201;-67
2022/06/10 05:10:38;;;;;;;0.40;0.30;;;10.90;99.90;;;;;;5050521;28;20409;-68
2022/06/10 05:13:04;;;;;;;0.40;0.20;;;11.00;99.90;;;;;;5049628;28;20439;-68
2022/06/10 05:15:30;;;;;;;0.40;0.20;;;11.10;99.90;;;;;;5050199;28;20390;-68
2022/06/10 05:17:58;;;;;;;0.40;0.20;;;11.20;99.90;;;;;;5049609;28;20386;-68
2022/06/10 05:20:31;;;;;;;0.40;0.25;;;11.30;99.90;;;;;;5050419;28;20384;-68
2022/06/10 05:22:57;;;;;;;0.40;0.30;;;11.30;99.90;;;;;;5049456;28;20377;-68
2022/06/10 05:25:22;;;;;;;0.40;0.20;;;11.40;99.90;;;;;;5050568;28;20386;-68
2022/06/10 05:27:48;;;;;;;0.40;0.20;;;11.50;99.90;;;;;;5049835;28;20388;-68
2022/06/10 05:30:21;;;;;;;0.40;0.40;;;11.50;99.90;;;;;;5050019;28;20413;-68
2022/06/10 05:32:47;;;;;;;0.40;0.20;;;11.70;99.90;;;;;;5050319;28;20443;-68
2022/06/10 05:35:13;;;;;;;0.47;0.40;;;11.70;99.90;;;;;;5049850;28;20928;-68
2022/06/10 05:37:39;;;;;;;0.40;0.30;;;11.80;99.90;;;;;;5051076;28;20379;-68
2022/06/10 05:40:05;;;;;;;0.40;0.30;;;11.90;99.90;;;;;;5053298;28;20838;-68
2022/06/10 05:42:31;;;;;;;0.40;0.20;;;11.90;99.90;;;;;;5053652;28;20427;-68
2022/06/10 05:44:56;;;;;;;0.40;0.20;;;12.00;99.90;;;;;;5053252;28;20401;-68
2022/06/10 05:47:31;;;;;;;0.40;0.20;;;12.10;99.90;;;;;;5053578;28;20805;-68
2022/06/10 05:49:59;;;;;;;0.40;0.20;;;12.20;99.90;;;;;;5053124;28;20475;-68
2022/06/10 05:52:27;;;;;;;0.40;0.20;;;12.20;99.90;;;;;;5053443;28;20390;-68
2022/06/10 05:54:56;;;;;;;0.40;0.20;;;12.40;99.90;;;;;;5053025;28;20377;-68
2022/06/10 05:57:22;;;;;;;0.60;0.50;;;12.50;99.90;;;;;;5054077;28;20378;-68
2022/06/10 05:59:49;;;;;;;0.40;0.20;;;12.60;99.90;;;;;;5073589;28;20386;-68
2022/06/10 06:02:15;;;;;;;0.40;0.20;;;12.60;99.90;;;;;;5073397;28;20391;-69
2022/06/10 06:04:41;;;;;;;0.40;0.20;;;12.60;99.90;;;;;;5073647;28;20379;-68
2022/06/10 06:07:08;;;;;;;0.40;0.20;;;12.60;99.90;;;;;;5072939;28;20380;-68
2022/06/10 06:09:34;;;;;;;0.40;0.30;;;12.70;99.90;;;;;;5073538;28;20872;-68
2022/06/10 06:12:00;;;;;;;0.40;0.20;;;12.70;99.90;;;;;;5072559;28;20418;-67
2022/06/10 06:14:27;;;;;;;0.40;0.20;;;12.80;99.90;;;;;;5073531;28;20744;-67
2022/06/10 06:16:56;;;;;;;0.40;0.30;;;12.90;99.90;;;;;;5072162;28;20843;-68
2022/06/10 06:19:24;;;;;;;0.40;0.20;;;13.00;99.90;;;;;;5073248;28;20801;-67
2022/06/10 06:21:50;;;;;;;0.40;0.20;;;13.10;99.90;;;;;;5070519;28;20760;-67
2022/06/10 06:24:16;;;;;;;0.40;0.20;;;13.20;99.90;;;;;;5072654;28;20448;-67
2022/06/10 06:26:42;;;;;;;0.40;0.20;;;13.30;99.90;;;;;;5072560;28;20407;-67
2022/06/10 06:29:08;;;;;;;0.40;0.30;;;13.40;99.90;;;;;;5065599;28;20513;-68
2022/06/10 06:31:34;;;;;;;0.40;0.30;;;13.60;99.90;;;;;;5059903;28;20395;-68
2022/06/10 06:34:00;;;;;;;0.40;0.30;;;13.70;99.90;;;;;;5068338;28;20384;-67
2022/06/10 06:36:27;;;;;;;0.40;0.20;;;13.70;99.90;;;;;;5071879;28;20384;-67
2022/06/10 06:38:54;;;;;;;0.40;0.20;;;13.70;99.90;;;;;;5065608;28;20957;-68
2022/06/10 06:41:21;;;;;;;0.40;0.20;;;13.80;99.90;;;;;;5066100;28;20431;-68
2022/06/10 06:43:47;;;;;;;0.40;0.20;;;13.80;99.90;;;;;;5069665;28;20404;-68
2022/06/10 06:46:15;;;;;;;0.40;0.20;;;13.90;99.90;;;;;;5071094;28;20460;-67
2022/06/10 06:48:41;;;;;;;0.40;0.20;;;14.00;99.90;;;;;;5072197;28;20404;-67
2022/06/10 06:51:07;;;;;;;0.40;0.20;;;14.00;99.90;;;;;;5072673;28;20391;-67
2022/06/10 06:53:33;;;;;;;0.40;0.20;;;14.10;99.90;;;;;;5072231;28;20387;-68
2022/06/10 06:56:01;;;;;;;0.40;0.20;;;14.20;99.90;;;;;;5068959;28;20400;-68
2022/06/10 06:58:27;;;;;;;0.40;0.40;;;14.30;99.90;;;;;;5065342;28;20399;-67
2022/06/10 07:00:53;;;;;;;0.40;0.30;;;14.40;99.90;;;;;;5068300;28;20787;-68
2022/06/10 07:03:20;;;;;;;0.40;0.20;;;14.50;99.90;;;;;;5072546;28;20388;-67
2022/06/10 07:05:46;;;;;;;0.40;0.20;;;14.60;99.90;;;;;;5072141;28;20384;-67
2022/06/10 07:08:12;;;;;;;0.40;0.20;;;14.60;99.90;;;;;;5070440;28;20394;-68
2022/06/10 07:10:38;;;;;;;0.40;0.20;;;14.70;99.90;;;;;;5086530;28;20844;-68
2022/06/10 07:13:04;;;;;;;0.40;0.20;;;14.70;99.90;;;;;;5066776;28;20418;-69
2022/06/10 07:15:30;;;;;;;0.40;0.30;;;15.30;99.90;;;;;;5071988;28;20396;-68
2022/06/10 07:17:57;;;;;;;0.40;0.20;;;15.30;99.90;;;;;;5064075;28;20396;-68
2022/06/10 07:20:34;;;;;;;0.68;0.68;;;15.30;99.90;;;;;;5068942;28;20702;-67
2022/06/10 07:23:00;;;;;;;0.40;0.20;;;15.60;99.90;;;;;;5071122;28;20498;-68
2022/06/10 07:25:28;;;;;;;0.40;0.30;;;15.80;99.90;;;;;;5069828;28;20399;-68
2022/06/10 07:27:55;;;;;;;0.50;0.50;;;15.90;99.90;;;;;;5070296;28;20421;-67
2022/06/10 07:30:24;;;;;;;0.40;0.20;;;15.80;99.90;;;;;;5071211;28;20407;-67
2022/06/10 07:32:50;;;;;;;0.40;0.30;;;15.90;99.90;;;;;;5065773;28;20407;-67
2022/06/10 07:35:18;;;;;;;0.40;0.30;;;15.90;99.90;;;;;;5070686;28;20534;-67
2022/06/10 07:37:45;;;;;;;0.40;0.30;;;15.90;99.90;;;;;;5071687;28;20484;-67
2022/06/10 07:41:56;;;;;;;0.40;0.30;;;16.00;99.90;;;;;;5070765;28;20467;-68
2022/06/10 07:43:01;;;;;;;0.40;0.20;;;16.20;99.90;;;;;;5070263;28;20404;-67
2022/06/10 07:45:28;;;;;;;0.40;0.20;;;16.40;99.90;;;;;;5071174;28;20429;-67
2022/06/10 07:47:54;;;;;;;0.40;0.30;;;16.30;99.90;;;;;;5071601;28;20471;-67
2022/06/10 07:50:23;;;;;;;0.40;0.40;;;16.30;99.90;;;;;;5070599;28;20883;-68
2022/06/10 07:52:49;;;;;;;0.40;0.22;;;16.40;99.90;;;;;;5071455;28;20408;-68
2022/06/10 07:55:19;;;;;;;0.40;0.20;;;16.60;99.90;;;;;;5069436;28;20483;-68
2022/06/10 07:57:45;;;;;;;0.40;0.30;;;16.60;99.90;;;;;;5070625;28;20388;-68
2022/06/10 08:00:11;;;;;;;0.40;0.20;;;16.50;99.90;;;;;;5069250;28;20483;-68
2022/06/10 08:02:38;;;;;;;0.40;0.20;;;16.60;99.90;;;;;;5070776;28;20905;-68
2022/06/10 08:05:06;;;;;;;0.40;0.20;;;16.70;99.90;;;;;;5070080;28;20426;-68
2022/06/10 08:07:32;;;;;;;0.40;0.20;;;16.60;99.90;;;;;;5060967;28;20479;-67
2022/06/10 08:09:58;;;;;;;0.40;0.20;;;16.70;99.90;;;;;;5069455;28;20839;-67
2022/06/10 08:12:24;;;;;;;0.40;0.20;;;16.80;99.90;;;;;;5064349;28;20496;-67
2022/06/10 08:14:49;;;;;;;0.40;0.40;;;17.00;99.90;;;;;;5064638;28;20388;-68
2022/06/10 08:17:15;;;;;;;0.40;0.30;;;16.80;99.90;;;;;;5063106;28;20445;-68
2022/06/10 08:19:42;;;;;;;0.40;0.20;;;16.70;99.90;;;;;;5063016;28;20491;-69
2022/06/10 08:24:53;;;;;;;0.40;0.20;;;17.00;99.90;;;;;;5066916;28;20732;-70
2022/06/10 08:27:19;;;;;;;0.40;0.30;;;17.10;99.90;;;;;;5067989;28;20388;-69
2022/06/10 08:29:44;;;;;;;0.40;0.20;;;17.10;99.90;;;;;;5069364;28;20486;-69
2022/06/10 08:32:10;;;;;;;0.40;0.30;;;17.10;99.90;;;;;;5068432;28;20395;-69
2022/06/10 08:34:36;;;;;;;0.40;0.20;;;17.10;99.90;;;;;;5069336;28;20388;-69
2022/06/10 08:37:02;;;;;;;0.40;0.20;;;17.10;99.90;;;;;;5066750;28;20437;-69
2022/06/10 08:39:29;;;;;;;0.40;0.40;;;17.30;99.90;;;;;;5068736;28;20475;-69
2022/06/10 08:42:15;;;;;;;0.40;0.30;;;17.50;99.90;;;;;;5071202;28;20821;-68
2022/06/10 08:44:44;;;;;;;0.40;0.20;;;17.50;99.90;;;;;;5067570;28;20971;-69
2022/06/10 08:47:23;;;;;;;0.40;0.20;;;17.50;99.90;;;;;;5067367;28;20864;-68
2022/06/10 08:49:55;;;;;;;0.40;0.20;;;17.40;99.90;;;;;;5068712;28;20416;-68
2022/06/10 08:52:51;;;;;;;0.40;0.20;;;17.50;99.90;;;;;;5064886;28;20577;-68
2022/06/10 08:55:42;;;;;;;0.40;0.20;;;17.50;99.90;;;;;;5068100;28;20383;-68
2022/06/10 08:58:26;;;;;;;1.40;1.30;;;17.50;99.90;;;;;;5067779;28;20399;-69
2022/06/10 09:00:55;;;;;;;0.40;0.40;;;17.70;99.90;;;;;;5068267;28;20387;-68
2022/06/10 09:03:38;;;;;;;0.40;0.30;;;17.70;99.90;;;;;;5067112;28;20448;-68
2022/06/10 09:06:09;;;;;;;0.40;0.20;;;17.70;99.90;;;;;;5066381;28;20494;-69
2022/06/10 09:08:40;;;;;;;0.40;0.30;;;17.80;99.90;;;;;;5029943;28;20957;-68
2022/06/10 09:11:44;;;;;;;0.40;0.20;;;18.10;99.90;;;;;;5064366;28;20545;-68
2022/06/10 09:14:25;;;;;;;0.40;0.20;;;18.20;99.90;;;;;;4967019;28;20426;-68
2022/06/10 09:16:58;;;;;;;0.40;0.20;;;18.20;99.90;;;;;;5056055;28;20409;-68
2022/06/10 09:19:24;;;;;;;0.40;0.20;;;18.30;99.90;;;;;;5065195;28;20889;-69
2022/06/10 09:22:30;;;;;;;0.40;0.20;;;18.40;99.90;;;;;;5068888;28;20391;-69
2022/06/10 09:25:23;;;;;;;0.40;0.20;;;18.50;99.90;;;;;;5074179;28;20736;-67
2022/06/10 09:27:53;;;;;;;0.40;0.30;;;18.80;99.90;;;;;;5063173;28;20391;-67
2022/06/10 09:30:24;;;;;;;0.40;0.30;;;18.90;99.90;;;;;;5075488;28;20831;-68
2022/06/10 09:33:08;;;;;;;0.40;0.20;;;18.70;99.90;;;;;;5071969;28;20442;-67
2022/06/10 09:35:37;;;;;;;0.40;0.20;;;18.50;99.90;;;;;;5064560;28;20891;-67
2022/06/10 09:38:29;;;;;;;0.40;0.20;;;18.70;99.90;;;;;;5069959;28;20376;-68
2022/06/10 09:41:16;;;;;;;0.40;0.20;;;18.80;99.90;;;;;;5057063;28;20383;-67
2022/06/10 09:44:20;;;;;;;0.40;0.20;;;18.90;99.00;;;;;;5067248;28;20413;-67
2022/06/10 09:47:07;;;;;;;0.40;0.20;;;19.00;99.60;;;;;;5039253;28;20424;-67
2022/06/10 09:49:53;;;;;;;0.40;0.20;;;19.10;98.50;;;;;;5073943;28;20412;-67
2022/06/10 09:52:25;;;;;;;0.40;0.20;;;19.20;99.60;;;;;;5072510;28;20450;-67
2022/06/10 09:55:02;;;;;;;0.40;0.20;;;19.10;98.00;;;;;;5056294;28;20487;-67
2022/06/10 09:57:49;;;;;;;0.40;0.20;;;19.20;98.40;;;;;;5067850;28;20407;-67
2022/06/10 10:00:19;;;;;;;0.40;0.20;;;19.20;96.70;;;;;;5061258;28;20433;-67
2022/06/10 10:03:04;;;;;;;0.40;0.40;;;19.30;97.20;;;;;;5069327;28;20418;-67
2022/06/10 10:05:30;;;;;;;0.40;0.20;;;19.40;97.50;;;;;;5061928;28;20397;-67
2022/06/10 10:08:12;;;;;;;0.40;0.30;;;19.50;96.40;;;;;;5055004;28;20428;-67
2022/06/10 10:10:47;;;;;;;0.40;0.40;;;19.60;96.00;;;;;;5063793;28;20457;-67
2022/06/10 10:13:42;;;;;;;0.40;0.40;;;19.60;93.90;;;;;;5062562;28;20416;-67
2022/06/10 10:16:38;;;;;;;0.40;0.20;;;19.80;94.00;;;;;;5049220;28;20417;-68
2022/06/10 10:19:09;;;;;;;0.40;0.30;;;19.80;94.80;;;;;;5072433;28;20411;-68
2022/06/10 10:21:43;;;;;;;0.40;0.30;;;19.90;95.40;;;;;;5068954;28;20519;-67
2022/06/10 10:24:17;;;;;;;0.40;0.30;;;20.10;93.20;;;;;;5070108;28;20470;-67
2022/06/10 10:26:44;;;;;;;0.40;0.20;;;20.10;93.20;;;;;;5070403;28;20383;-67
2022/06/10 10:29:20;;;;;;;0.40;0.20;;;20.20;91.90;;;;;;5071581;28;20411;-68
2022/06/10 10:31:54;;;;;;;0.40;0.22;;;20.30;91.10;;;;;;5072956;28;20384;-67
2022/06/10 10:34:23;;;;;;;0.40;0.20;;;20.20;91.30;;;;;;5072271;28;20384;-67
2022/06/10 10:37:01;;;;;;;0.40;0.20;;;20.10;90.30;;;;;;5063508;28;20570;-67
2022/06/10 10:39:38;;;;;;;0.40;0.30;;;20.40;90.00;;;;;;5041576;28;20402;-67
2022/06/10 10:42:27;;;;;;;0.40;0.20;;;20.50;88.50;;;;;;5060296;28;20489;-67
2022/06/10 10:45:06;;;;;;;0.60;0.60;;;20.40;88.70;;;;;;5076311;28;20420;-67
2022/06/10 10:47:34;;;;;;;0.40;0.20;;;20.60;86.90;;;;;;5067670;28;20405;-68
2022/06/10 10:50:05;;;;;;;0.40;0.20;;;20.70;85.20;;;;;;5060050;28;20456;-67
2022/06/10 10:52:34;;;;;;;0.40;0.20;;;20.70;86.30;;;;;;5069897;28;20379;-67
2022/06/10 10:55:18;;;;;;;0.40;0.20;;;20.60;86.30;;;;;;5065187;28;20506;-67
2022/06/10 10:58:09;;;;;;;0.40;0.30;;;20.70;85.80;;;;;;5065313;28;20714;-67
2022/06/10 11:00:44;;;;;;;0.40;0.20;;;20.80;85.30;;;;;;5072655;28;20395;-67
2022/06/10 11:03:45;;;;;;;0.40;0.20;;;20.80;86.50;;;;;;5056887;28;20393;-67
2022/06/10 11:06:27;;;;;;;0.40;0.20;;;20.90;91.90;;;;;;5069090;28;20396;-68
2022/06/10 11:09:02;;;;;;;0.40;0.40;;;21.30;83.00;;;;;;5071176;28;20396;-67
2022/06/10 11:11:35;;;;;;;0.40;0.20;;;21.20;88.00;;;;;;5066589;28;20989;-67
2022/06/10 11:14:34;;;;;;;0.40;0.30;;;21.20;82.60;;;;;;5057962;28;20404;-68
2022/06/10 11:17:12;;;;;;;0.40;0.20;;;21.30;80.60;;;;;;5059767;28;20403;-68
2022/06/10 11:19:40;;;;;;;0.40;0.20;;;21.50;84.90;;;;;;5071030;28;20384;-69
2022/06/10 11:22:26;;;;;;;0.40;0.30;;;21.70;81.80;;;;;;5072141;28;20392;-66
2022/06/10 11:25:03;;;;;;;0.40;0.30;;;21.80;77.90;;;;;;5071566;28;20410;-68
2022/06/10 11:27:40;;;;;;;0.40;0.20;;;21.90;77.80;;;;;;5075769;28;20693;-68
2022/06/10 11:30:15;;;;;;;0.40;0.30;;;22.30;75.60;;;;;;5069242;28;20734;-68
2022/06/10 11:32:44;;;;;;;0.40;0.30;;;22.50;77.30;;;;;;5069955;28;20396;-68
2022/06/10 11:35:31;;;;;;;0.40;0.30;;;22.60;74.90;;;;;;5070536;28;20853;-69
2022/06/10 11:38:15;;;;;;;0.40;0.20;;;22.90;75.00;;;;;;5071357;28;20376;-68
2022/06/10 11:40:46;;;;;;;0.40;0.20;;;23.00;75.00;;;;;;5068883;28;20878;-68
2022/06/10 11:43:28;;;;;;;0.40;0.30;;;24.20;75.30;;;;;;5070796;28;20457;-67
2022/06/10 11:46:02;;;;;;;0.40;0.20;;;24.60;67.90;;;;;;5070609;28;20722;-66
2022/06/10 11:48:46;;;;;;;0.40;0.20;;;25.50;65.50;;;;;;5050890;28;20830;-66
2022/06/10 11:51:38;;;;;;;0.40;0.30;;;26.70;63.50;;;;;;5070700;28;20429;-69
2022/06/10 11:54:44;;;;;;;0.40;0.20;;;26.20;60.70;;;;;;5068771;28;20388;-66
2022/06/10 12:00:27;;;;;;;0.40;0.20;;;25.20;59.70;;;;;;5065842;28;20405;-67
2022/06/10 12:03:15;;;;;;;0.40;0.20;;;26.10;63.00;;;;;;5069872;28;20414;-68
2022/06/10 12:06:14;;;;;;;1.20;0.60;;;25.50;60.90;;;;;;5068464;28;20432;-68
2022/06/10 12:08:50;;;;;;;0.40;0.20;;;25.90;62.00;;;;;;5070525;28;20383;-67
2022/06/10 12:11:43;;;;;;;0.40;0.20;;;25.90;57.60;;;;;;5070240;28;20422;-67
2022/06/10 12:14:20;;;;;;;0.40;0.20;;;26.80;57.90;;;;;;5062372;28;20396;-67
2022/06/10 12:17:01;;;;;;;0.40;0.30;;;28.20;56.60;;;;;;5064521;28;20479;-67
2022/06/10 12:19:31;;;;;;;0.40;0.20;;;27.80;59.80;;;;;;5064870;28;20403;-67
2022/06/10 12:21:56;;;;;;;0.40;0.20;;;28.50;53.90;;;;;;5068734;28;20379;-66
2022/06/10 12:24:23;;;;;;;0.40;0.20;;;27.90;51.80;;;;;;5068884;28;20384;-67
2022/06/10 12:27:00;;;;;;;1.80;1.00;;;27.70;52.70;;;;;;5069587;28;20375;-66
2022/06/10 12:29:47;;;;;;;0.40;0.20;;;27.80;54.60;;;;;;5068721;28;20407;-66
2022/06/10 12:32:45;;;;;;;0.40;0.20;;;27.60;51.20;;;;;;5068672;28;20388;-67
2022/06/10 12:35:28;;;;;;;0.40;0.20;;;27.40;57.90;;;;;;5068738;28;20384;-67
2022/06/10 12:38:32;;;;;;;0.40;0.20;;;27.70;55.70;;;;;;5067256;28;20396;-67
2022/06/10 12:41:39;;;;;;;0.40;0.20;;;27.50;53.20;;;;;;5062209;28;20401;-68
2022/06/10 12:44:11;;;;;;;0.40;0.20;;;26.90;52.90;;;;;;5052813;28;20420;-67
2022/06/10 12:46:39;;;;;;;0.40;0.20;;;28.20;52.90;;;;;;5061852;28;20409;-67
2022/06/10 12:49:19;;;;;;;0.40;0.20;;;27.30;53.70;;;;;;5064720;28;20422;-66
2022/06/10 12:52:10;;;;;;;0.40;0.30;;;26.90;53.80;;;;;;5067770;28;20432;-67
2022/06/10 12:54:48;;;;;;;0.40;0.20;;;27.20;54.00;;;;;;5060024;28;20417;-67
2022/06/10 12:57:40;;;;;;;0.40;0.20;;;26.30;53.70;;;;;;5064018;28;20392;-68
2022/06/10 13:00:18;;;;;;;0.40;0.30;;;26.50;54.80;;;;;;5068638;28;20498;-67
2022/06/10 13:02:50;;;;;;;0.40;0.20;;;26.70;54.70;;;;;;5064693;28;20395;-67
2022/06/10 13:05:42;;;;;;;0.40;0.20;;;25.90;53.60;;;;;;5065834;28;20421;-68
2022/06/10 13:08:37;;;;;;;0.40;0.20;;;25.90;57.90;;;;;;5064806;28;20398;-67
2022/06/10 13:11:05;;;;;;;0.40;0.20;;;26.20;58.80;;;;;;5066293;28;20909;-67
2022/06/10 13:13:31;;;;;;;0.60;0.50;;;27.30;56.10;;;;;;5065576;28;20543;-67
2022/06/10 13:16:34;;;;;;;0.40;0.20;;;26.70;52.10;;;;;;5051349;28;20544;-67
2022/06/10 13:19:01;;;;;;;0.40;0.30;;;26.20;53.30;;;;;;5067333;28;20419;-67
2022/06/10 13:21:32;;;;;;;0.40;0.30;;;26.70;58.50;;;;;;5068252;28;20425;-67
2022/06/10 13:24:12;;;;;;;0.40;0.20;;;26.50;53.40;;;;;;5050462;28;20923;-67
2022/06/10 13:26:38;;;;;;;0.40;0.20;;;26.90;57.30;;;;;;5044064;28;20410;-67
2022/06/10 13:29:14;;;;;;;0.40;0.20;;;27.40;55.50;;;;;;5069516;28;20423;-67
2022/06/10 13:31:54;;;;;;;0.40;0.20;;;26.00;52.30;;;;;;5065609;28;20748;-66